sensor_id;sensor_type;location;lat;lon;timestamp;P1;durP1;ratioP1;P2;durP2;ratioP2
70071;SDS011;57434;42.794;23.302;2022-11-15T00:01:36;35.85;;;19.08;;
70071;SDS011;57434;42.794;23.302;2022-11-15T00:04:05;50.37;;;20.80;;
70071;SDS011;57434;42.794;23.302;2022-11-15T00:06:43;46.25;;;20.10;;
70071;SDS011;57434;42.794;23.302;2022-11-15T00:09:10;50.80;;;19.77;;
70071;SDS011;57434;42.794;23.302;2022-11-15T00:11:40;59.85;;;21.88;;
70071;SDS011;57434;42.794;23.302;2022-11-15T00:14:18;58.20;;;20.33;;
70071;SDS011;57434;42.794;23.302;2022-11-15T00:16:44;67.03;;;25.07;;
70071;SDS011;57434;42.794;23.302;2022-11-15T00:19:11;56.85;;;23.63;;
70071;SDS011;57434;42.794;23.302;2022-11-15T00:21:38;48.78;;;20.33;;
70071;SDS011;57434;42.794;23.302;2022-11-15T00:24:05;59.65;;;21.92;;
70071;SDS011;57434;42.794;23.302;2022-11-15T00:26:32;62.22;;;22.17;;
70071;SDS011;57434;42.794;23.302;2022-11-15T00:29:00;66.83;;;22.30;;
70071;SDS011;57434;42.794;23.302;2022-11-15T00:31:27;63.63;;;22.30;;
70071;SDS011;57434;42.794;23.302;2022-11-15T00:33:54;74.78;;;29.88;;
70071;SDS011;57434;42.794;23.302;2022-11-15T00:36:20;65.75;;;25.52;;
70071;SDS011;57434;42.794;23.302;2022-11-15T00:38:47;89.68;;;29.77;;
70071;SDS011;57434;42.794;23.302;2022-11-15T00:41:14;59.53;;;21.50;;
70071;SDS011;57434;42.794;23.302;2022-11-15T00:43:41;58.63;;;22.80;;
70071;SDS011;57434;42.794;23.302;2022-11-15T00:46:08;67.72;;;24.23;;
70071;SDS011;57434;42.794;23.302;2022-11-15T00:48:36;63.35;;;22.17;;
70071;SDS011;57434;42.794;23.302;2022-11-15T00:51:03;57.55;;;22.75;;
70071;SDS011;57434;42.794;23.302;2022-11-15T00:53:30;82.13;;;27.47;;
70071;SDS011;57434;42.794;23.302;2022-11-15T00:55:58;73.80;;;23.88;;
70071;SDS011;57434;42.794;23.302;2022-11-15T00:58:25;83.18;;;24.45;;
70071;SDS011;57434;42.794;23.302;2022-11-15T01:00:52;69.85;;;24.10;;
70071;SDS011;57434;42.794;23.302;2022-11-15T01:03:19;65.50;;;24.67;;
70071;SDS011;57434;42.794;23.302;2022-11-15T01:05:45;56.77;;;22.60;;
70071;SDS011;57434;42.794;23.302;2022-11-15T01:08:13;81.10;;;26.38;;
70071;SDS011;57434;42.794;23.302;2022-11-15T01:10:41;72.22;;;26.63;;
70071;SDS011;57434;42.794;23.302;2022-11-15T01:13:08;64.25;;;26.30;;
70071;SDS011;57434;42.794;23.302;2022-11-15T01:15:38;74.82;;;26.65;;
70071;SDS011;57434;42.794;23.302;2022-11-15T01:18:06;76.40;;;25.90;;
70071;SDS011;57434;42.794;23.302;2022-11-15T01:20:34;77.10;;;27.50;;
70071;SDS011;57434;42.794;23.302;2022-11-15T01:23:01;78.68;;;25.83;;
70071;SDS011;57434;42.794;23.302;2022-11-15T01:25:28;63.33;;;21.60;;
70071;SDS011;57434;42.794;23.302;2022-11-15T01:27:55;61.83;;;22.95;;
70071;SDS011;57434;42.794;23.302;2022-11-15T01:30:21;47.13;;;21.43;;
70071;SDS011;57434;42.794;23.302;2022-11-15T01:32:48;57.63;;;22.73;;
70071;SDS011;57434;42.794;23.302;2022-11-15T01:35:15;54.92;;;21.88;;
70071;SDS011;57434;42.794;23.302;2022-11-15T01:37:42;53.55;;;20.13;;
70071;SDS011;57434;42.794;23.302;2022-11-15T01:40:10;52.55;;;24.02;;
70071;SDS011;57434;42.794;23.302;2022-11-15T01:42:37;53.03;;;20.90;;
70071;SDS011;57434;42.794;23.302;2022-11-15T01:45:04;60.65;;;23.85;;
70071;SDS011;57434;42.794;23.302;2022-11-15T01:47:37;65.40;;;23.58;;
70071;SDS011;57434;42.794;23.302;2022-11-15T01:50:11;63.67;;;23.42;;
70071;SDS011;57434;42.794;23.302;2022-11-15T01:52:41;56.97;;;22.63;;
70071;SDS011;57434;42.794;23.302;2022-11-15T01:55:22;58.37;;;23.10;;
70071;SDS011;57434;42.794;23.302;2022-11-15T01:57:53;69.95;;;23.90;;
70071;SDS011;57434;42.794;23.302;2022-11-15T02:00:24;89.45;;;26.10;;
70071;SDS011;57434;42.794;23.302;2022-11-15T02:02:51;62.00;;;23.25;;
70071;SDS011;57434;42.794;23.302;2022-11-15T02:05:18;77.90;;;25.17;;
70071;SDS011;57434;42.794;23.302;2022-11-15T02:07:46;93.13;;;26.60;;
70071;SDS011;57434;42.794;23.302;2022-11-15T02:10:18;77.70;;;25.77;;
70071;SDS011;57434;42.794;23.302;2022-11-15T02:12:47;62.28;;;23.35;;
70071;SDS011;57434;42.794;23.302;2022-11-15T02:15:15;66.85;;;25.25;;
70071;SDS011;57434;42.794;23.302;2022-11-15T02:23:30;69.53;;;24.92;;
70071;SDS011;57434;42.794;23.302;2022-11-15T02:26:19;69.57;;;24.00;;
70071;SDS011;57434;42.794;23.302;2022-11-15T02:37:35;54.28;;;20.92;;
70071;SDS011;57434;42.794;23.302;2022-11-15T02:40:18;69.43;;;24.05;;
70071;SDS011;57434;42.794;23.302;2022-11-15T02:43:11;59.65;;;22.80;;
70071;SDS011;57434;42.794;23.302;2022-11-15T02:45:56;43.80;;;20.77;;
70071;SDS011;57434;42.794;23.302;2022-11-15T02:48:30;54.50;;;23.13;;
70071;SDS011;57434;42.794;23.302;2022-11-15T02:50:58;59.35;;;21.85;;
70071;SDS011;57434;42.794;23.302;2022-11-15T02:53:27;44.28;;;20.55;;
70071;SDS011;57434;42.794;23.302;2022-11-15T02:55:57;51.03;;;20.27;;
70071;SDS011;57434;42.794;23.302;2022-11-15T03:04:08;39.60;;;17.35;;
70071;SDS011;57434;42.794;23.302;2022-11-15T03:09:34;53.67;;;20.50;;
70071;SDS011;57434;42.794;23.302;2022-11-15T03:12:27;57.90;;;21.83;;
70071;SDS011;57434;42.794;23.302;2022-11-15T03:15:00;49.13;;;19.20;;
70071;SDS011;57434;42.794;23.302;2022-11-15T03:17:34;42.85;;;19.10;;
70071;SDS011;57434;42.794;23.302;2022-11-15T03:20:05;44.13;;;18.33;;
70071;SDS011;57434;42.794;23.302;2022-11-15T03:22:35;59.28;;;20.17;;
70071;SDS011;57434;42.794;23.302;2022-11-15T03:25:05;62.17;;;23.65;;
70071;SDS011;57434;42.794;23.302;2022-11-15T03:27:41;47.80;;;19.63;;
70071;SDS011;57434;42.794;23.302;2022-11-15T03:30:10;49.53;;;22.45;;
70071;SDS011;57434;42.794;23.302;2022-11-15T03:32:40;57.97;;;24.17;;
70071;SDS011;57434;42.794;23.302;2022-11-15T03:35:15;46.92;;;22.63;;
70071;SDS011;57434;42.794;23.302;2022-11-15T03:37:50;53.38;;;20.23;;
70071;SDS011;57434;42.794;23.302;2022-11-15T03:40:17;50.57;;;20.63;;
70071;SDS011;57434;42.794;23.302;2022-11-15T03:43:00;43.78;;;20.58;;
70071;SDS011;57434;42.794;23.302;2022-11-15T03:45:43;53.03;;;20.23;;
70071;SDS011;57434;42.794;23.302;2022-11-15T03:48:14;45.58;;;21.83;;
70071;SDS011;57434;42.794;23.302;2022-11-15T03:50:45;43.50;;;19.13;;
70071;SDS011;57434;42.794;23.302;2022-11-15T03:53:13;45.17;;;19.03;;
70071;SDS011;57434;42.794;23.302;2022-11-15T03:55:41;46.78;;;19.83;;
70071;SDS011;57434;42.794;23.302;2022-11-15T03:58:07;56.95;;;25.42;;
70071;SDS011;57434;42.794;23.302;2022-11-15T04:00:34;55.53;;;22.50;;
70071;SDS011;57434;42.794;23.302;2022-11-15T04:03:02;54.58;;;21.35;;
70071;SDS011;57434;42.794;23.302;2022-11-15T04:05:29;51.47;;;21.60;;
70071;SDS011;57434;42.794;23.302;2022-11-15T04:07:56;48.28;;;19.90;;
70071;SDS011;57434;42.794;23.302;2022-11-15T04:10:23;44.17;;;21.17;;
70071;SDS011;57434;42.794;23.302;2022-11-15T04:12:50;44.22;;;20.13;;
70071;SDS011;57434;42.794;23.302;2022-11-15T04:15:17;57.35;;;22.17;;
70071;SDS011;57434;42.794;23.302;2022-11-15T04:17:47;53.73;;;22.07;;
70071;SDS011;57434;42.794;23.302;2022-11-15T04:20:17;52.97;;;21.75;;
70071;SDS011;57434;42.794;23.302;2022-11-15T04:22:45;51.70;;;22.00;;
70071;SDS011;57434;42.794;23.302;2022-11-15T04:25:13;54.60;;;24.35;;
70071;SDS011;57434;42.794;23.302;2022-11-15T04:27:44;52.35;;;22.40;;
70071;SDS011;57434;42.794;23.302;2022-11-15T04:30:11;59.20;;;21.23;;
70071;SDS011;57434;42.794;23.302;2022-11-15T04:32:38;68.25;;;26.33;;
70071;SDS011;57434;42.794;23.302;2022-11-15T04:35:05;61.33;;;25.05;;
70071;SDS011;57434;42.794;23.302;2022-11-15T04:37:32;55.60;;;23.20;;
70071;SDS011;57434;42.794;23.302;2022-11-15T04:39:59;47.28;;;21.50;;
70071;SDS011;57434;42.794;23.302;2022-11-15T04:42:26;53.20;;;22.80;;
70071;SDS011;57434;42.794;23.302;2022-11-15T04:44:53;58.72;;;21.38;;
70071;SDS011;57434;42.794;23.302;2022-11-15T04:47:20;62.53;;;24.50;;
70071;SDS011;57434;42.794;23.302;2022-11-15T04:49:47;65.07;;;23.65;;
70071;SDS011;57434;42.794;23.302;2022-11-15T04:52:14;62.47;;;24.63;;
70071;SDS011;57434;42.794;23.302;2022-11-15T04:54:41;59.17;;;23.43;;
70071;SDS011;57434;42.794;23.302;2022-11-15T04:57:08;56.85;;;23.17;;
70071;SDS011;57434;42.794;23.302;2022-11-15T04:59:34;52.95;;;22.38;;
70071;SDS011;57434;42.794;23.302;2022-11-15T05:02:02;56.28;;;23.20;;
70071;SDS011;57434;42.794;23.302;2022-11-15T05:04:29;51.80;;;19.45;;
70071;SDS011;57434;42.794;23.302;2022-11-15T05:06:56;54.23;;;20.70;;
70071;SDS011;57434;42.794;23.302;2022-11-15T05:09:23;55.85;;;20.88;;
70071;SDS011;57434;42.794;23.302;2022-11-15T05:11:49;50.30;;;20.83;;
70071;SDS011;57434;42.794;23.302;2022-11-15T05:14:16;45.28;;;19.13;;
70071;SDS011;57434;42.794;23.302;2022-11-15T05:16:43;42.22;;;18.00;;
70071;SDS011;57434;42.794;23.302;2022-11-15T05:19:11;51.70;;;20.30;;
70071;SDS011;57434;42.794;23.302;2022-11-15T05:21:47;45.20;;;18.48;;
70071;SDS011;57434;42.794;23.302;2022-11-15T05:24:14;45.85;;;18.60;;
70071;SDS011;57434;42.794;23.302;2022-11-15T05:26:44;36.15;;;17.13;;
70071;SDS011;57434;42.794;23.302;2022-11-15T05:29:13;43.47;;;16.63;;
70071;SDS011;57434;42.794;23.302;2022-11-15T05:31:40;44.57;;;17.67;;
70071;SDS011;57434;42.794;23.302;2022-11-15T05:34:07;48.60;;;18.45;;
70071;SDS011;57434;42.794;23.302;2022-11-15T05:36:38;52.95;;;17.95;;
70071;SDS011;57434;42.794;23.302;2022-11-15T05:39:08;51.08;;;18.92;;
70071;SDS011;57434;42.794;23.302;2022-11-15T05:41:36;47.22;;;18.70;;
70071;SDS011;57434;42.794;23.302;2022-11-15T05:44:09;49.10;;;17.90;;
70071;SDS011;57434;42.794;23.302;2022-11-15T05:46:38;60.85;;;24.80;;
70071;SDS011;57434;42.794;23.302;2022-11-15T05:49:06;76.43;;;30.20;;
70071;SDS011;57434;42.794;23.302;2022-11-15T05:51:38;68.10;;;26.80;;
70071;SDS011;57434;42.794;23.302;2022-11-15T05:54:06;56.65;;;22.33;;
70071;SDS011;57434;42.794;23.302;2022-11-15T05:56:33;73.73;;;23.87;;
70071;SDS011;57434;42.794;23.302;2022-11-15T05:59:00;66.00;;;23.42;;
70071;SDS011;57434;42.794;23.302;2022-11-15T06:01:28;68.47;;;26.50;;
70071;SDS011;57434;42.794;23.302;2022-11-15T06:03:56;71.18;;;24.17;;
70071;SDS011;57434;42.794;23.302;2022-11-15T06:06:29;49.75;;;23.00;;
70071;SDS011;57434;42.794;23.302;2022-11-15T06:08:58;60.80;;;25.33;;
70071;SDS011;57434;42.794;23.302;2022-11-15T06:11:26;76.57;;;30.80;;
70071;SDS011;57434;42.794;23.302;2022-11-15T06:13:53;85.13;;;35.03;;
70071;SDS011;57434;42.794;23.302;2022-11-15T06:16:23;100.68;;;40.03;;
70071;SDS011;57434;42.794;23.302;2022-11-15T06:18:59;94.07;;;38.22;;
70071;SDS011;57434;42.794;23.302;2022-11-15T06:21:31;88.53;;;39.37;;
70071;SDS011;57434;42.794;23.302;2022-11-15T06:23:59;98.30;;;37.17;;
70071;SDS011;57434;42.794;23.302;2022-11-15T06:26:32;86.32;;;33.38;;
70071;SDS011;57434;42.794;23.302;2022-11-15T06:29:04;83.68;;;33.00;;
70071;SDS011;57434;42.794;23.302;2022-11-15T06:31:34;89.93;;;37.75;;
70071;SDS011;57434;42.794;23.302;2022-11-15T06:34:04;87.90;;;33.87;;
70071;SDS011;57434;42.794;23.302;2022-11-15T06:36:34;84.57;;;32.22;;
70071;SDS011;57434;42.794;23.302;2022-11-15T06:39:04;80.72;;;28.90;;
70071;SDS011;57434;42.794;23.302;2022-11-15T06:41:35;60.50;;;26.77;;
70071;SDS011;57434;42.794;23.302;2022-11-15T06:44:05;82.28;;;34.22;;
70071;SDS011;57434;42.794;23.302;2022-11-15T06:46:34;65.30;;;25.90;;
70071;SDS011;57434;42.794;23.302;2022-11-15T06:49:02;62.17;;;26.08;;
70071;SDS011;57434;42.794;23.302;2022-11-15T06:51:40;67.10;;;29.40;;
70071;SDS011;57434;42.794;23.302;2022-11-15T06:54:10;62.35;;;26.30;;
70071;SDS011;57434;42.794;23.302;2022-11-15T06:56:37;56.67;;;22.75;;
70071;SDS011;57434;42.794;23.302;2022-11-15T06:59:13;55.47;;;22.30;;
70071;SDS011;57434;42.794;23.302;2022-11-15T07:01:40;57.50;;;22.58;;
70071;SDS011;57434;42.794;23.302;2022-11-15T07:04:10;63.17;;;23.70;;
70071;SDS011;57434;42.794;23.302;2022-11-15T07:06:48;61.67;;;23.95;;
70071;SDS011;57434;42.794;23.302;2022-11-15T07:09:23;66.88;;;25.05;;
70071;SDS011;57434;42.794;23.302;2022-11-15T07:12:11;62.43;;;23.80;;
70071;SDS011;57434;42.794;23.302;2022-11-15T07:14:46;67.45;;;26.25;;
70071;SDS011;57434;42.794;23.302;2022-11-15T07:17:22;59.30;;;27.85;;
70071;SDS011;57434;42.794;23.302;2022-11-15T07:19:51;69.97;;;28.05;;
70071;SDS011;57434;42.794;23.302;2022-11-15T07:22:33;70.97;;;29.48;;
70071;SDS011;57434;42.794;23.302;2022-11-15T07:25:06;75.53;;;32.23;;
70071;SDS011;57434;42.794;23.302;2022-11-15T07:27:36;72.97;;;27.67;;
70071;SDS011;57434;42.794;23.302;2022-11-15T07:30:17;69.18;;;26.08;;
70071;SDS011;57434;42.794;23.302;2022-11-15T07:32:47;52.05;;;21.70;;
70071;SDS011;57434;42.794;23.302;2022-11-15T07:35:28;68.18;;;28.67;;
70071;SDS011;57434;42.794;23.302;2022-11-15T07:38:01;77.50;;;28.20;;
70071;SDS011;57434;42.794;23.302;2022-11-15T07:40:37;60.97;;;23.00;;
70071;SDS011;57434;42.794;23.302;2022-11-15T07:43:15;55.92;;;21.73;;
70071;SDS011;57434;42.794;23.302;2022-11-15T07:45:50;48.65;;;20.17;;
70071;SDS011;57434;42.794;23.302;2022-11-15T07:48:37;53.83;;;21.77;;
70071;SDS011;57434;42.794;23.302;2022-11-15T07:51:13;58.93;;;23.17;;
70071;SDS011;57434;42.794;23.302;2022-11-15T07:53:42;54.80;;;20.88;;
70071;SDS011;57434;42.794;23.302;2022-11-15T07:56:30;56.92;;;24.60;;
70071;SDS011;57434;42.794;23.302;2022-11-15T07:59:07;48.47;;;19.88;;
70071;SDS011;57434;42.794;23.302;2022-11-15T08:01:45;55.28;;;18.45;;
70071;SDS011;57434;42.794;23.302;2022-11-15T08:04:32;40.33;;;15.63;;
70071;SDS011;57434;42.794;23.302;2022-11-15T08:07:37;45.40;;;17.25;;
70071;SDS011;57434;42.794;23.302;2022-11-15T08:10:30;49.13;;;17.05;;
70071;SDS011;57434;42.794;23.302;2022-11-15T08:13:39;40.45;;;14.30;;
70071;SDS011;57434;42.794;23.302;2022-11-15T08:16:50;31.73;;;11.88;;
70071;SDS011;57434;42.794;23.302;2022-11-15T08:19:58;28.63;;;13.67;;
70071;SDS011;57434;42.794;23.302;2022-11-15T08:25:58;29.33;;;12.10;;
70071;SDS011;57434;42.794;23.302;2022-11-15T08:28:45;41.33;;;13.88;;
70071;SDS011;57434;42.794;23.302;2022-11-15T08:34:44;31.93;;;13.70;;
70071;SDS011;57434;42.794;23.302;2022-11-15T08:37:26;39.30;;;14.35;;
70071;SDS011;57434;42.794;23.302;2022-11-15T08:40:11;45.95;;;15.57;;
70071;SDS011;57434;42.794;23.302;2022-11-15T08:42:50;38.80;;;15.43;;
70071;SDS011;57434;42.794;23.302;2022-11-15T08:45:18;29.60;;;12.98;;
70071;SDS011;57434;42.794;23.302;2022-11-15T08:48:04;30.40;;;12.57;;
70071;SDS011;57434;42.794;23.302;2022-11-15T08:50:55;36.35;;;13.90;;
70071;SDS011;57434;42.794;23.302;2022-11-15T08:53:44;37.10;;;14.07;;
70071;SDS011;57434;42.794;23.302;2022-11-15T08:56:12;43.55;;;16.02;;
70071;SDS011;57434;42.794;23.302;2022-11-15T08:58:56;32.70;;;12.20;;
70071;SDS011;57434;42.794;23.302;2022-11-15T09:01:28;26.53;;;9.73;;
70071;SDS011;57434;42.794;23.302;2022-11-15T09:03:56;31.77;;;12.18;;
70071;SDS011;57434;42.794;23.302;2022-11-15T09:06:25;31.15;;;11.75;;
70071;SDS011;57434;42.794;23.302;2022-11-15T09:08:55;30.95;;;11.93;;
70071;SDS011;57434;42.794;23.302;2022-11-15T09:11:45;30.55;;;12.38;;
70071;SDS011;57434;42.794;23.302;2022-11-15T09:14:43;37.70;;;14.07;;
70071;SDS011;57434;42.794;23.302;2022-11-15T09:17:14;34.75;;;13.35;;
70071;SDS011;57434;42.794;23.302;2022-11-15T09:19:50;37.47;;;15.90;;
70071;SDS011;57434;42.794;23.302;2022-11-15T09:25:17;31.45;;;13.45;;
70071;SDS011;57434;42.794;23.302;2022-11-15T09:27:53;34.43;;;12.83;;
70071;SDS011;57434;42.794;23.302;2022-11-15T09:30:47;42.45;;;16.95;;
70071;SDS011;57434;42.794;23.302;2022-11-15T09:34:09;39.25;;;15.68;;
70071;SDS011;57434;42.794;23.302;2022-11-15T09:36:53;35.20;;;15.32;;
70071;SDS011;57434;42.794;23.302;2022-11-15T09:39:31;42.63;;;16.50;;
70071;SDS011;57434;42.794;23.302;2022-11-15T09:48:25;46.10;;;19.13;;
70071;SDS011;57434;42.794;23.302;2022-11-15T09:57:32;35.20;;;16.43;;
70071;SDS011;57434;42.794;23.302;2022-11-15T10:00:48;40.08;;;17.08;;
70071;SDS011;57434;42.794;23.302;2022-11-15T10:13:45;41.70;;;15.83;;
70071;SDS011;57434;42.794;23.302;2022-11-15T10:19:35;40.17;;;16.45;;
70071;SDS011;57434;42.794;23.302;2022-11-15T10:25:10;45.55;;;18.63;;
70071;SDS011;57434;42.794;23.302;2022-11-15T10:30:57;44.33;;;17.15;;
70071;SDS011;57434;42.794;23.302;2022-11-15T10:33:56;41.13;;;16.42;;
70071;SDS011;57434;42.794;23.302;2022-11-15T10:59:00;42.83;;;19.07;;
70071;SDS011;57434;42.794;23.302;2022-11-15T11:14:33;38.93;;;16.80;;
70071;SDS011;57434;42.794;23.302;2022-11-15T11:20:53;45.53;;;17.80;;
70071;SDS011;57434;42.794;23.302;2022-11-15T11:26:55;44.25;;;17.75;;
70071;SDS011;57434;42.794;23.302;2022-11-15T11:33:24;37.55;;;16.77;;
70071;SDS011;57434;42.794;23.302;2022-11-15T11:46:02;41.00;;;18.37;;
70071;SDS011;57434;42.794;23.302;2022-11-15T11:52:00;42.35;;;18.17;;
70071;SDS011;57434;42.794;23.302;2022-11-15T12:00:49;42.37;;;17.33;;
70071;SDS011;57434;42.794;23.302;2022-11-15T12:17:50;43.65;;;19.23;;
70071;SDS011;57434;42.794;23.302;2022-11-15T12:20:42;45.95;;;19.48;;
70071;SDS011;57434;42.794;23.302;2022-11-15T12:24:20;47.53;;;21.38;;
70071;SDS011;57434;42.794;23.302;2022-11-15T12:27:46;44.33;;;20.58;;
70071;SDS011;57434;42.794;23.302;2022-11-15T12:30:15;45.50;;;18.47;;
70071;SDS011;57434;42.794;23.302;2022-11-15T12:33:00;47.20;;;19.17;;
70071;SDS011;57434;42.794;23.302;2022-11-15T12:35:35;41.78;;;19.00;;
70071;SDS011;57434;42.794;23.302;2022-11-15T12:41:37;46.80;;;19.02;;
70071;SDS011;57434;42.794;23.302;2022-11-15T12:44:13;55.03;;;21.77;;
70071;SDS011;57434;42.794;23.302;2022-11-15T12:47:23;53.90;;;22.05;;
70071;SDS011;57434;42.794;23.302;2022-11-15T12:53:30;50.95;;;21.23;;
70071;SDS011;57434;42.794;23.302;2022-11-15T13:04:28;49.88;;;21.17;;
70071;SDS011;57434;42.794;23.302;2022-11-15T13:07:08;48.95;;;21.05;;
70071;SDS011;57434;42.794;23.302;2022-11-15T13:16:29;50.30;;;20.25;;
70071;SDS011;57434;42.794;23.302;2022-11-15T13:19:09;44.05;;;18.85;;
70071;SDS011;57434;42.794;23.302;2022-11-15T13:21:47;50.22;;;18.60;;
70071;SDS011;57434;42.794;23.302;2022-11-15T13:24:43;42.28;;;18.45;;
70071;SDS011;57434;42.794;23.302;2022-11-15T13:27:34;44.47;;;19.20;;
70071;SDS011;57434;42.794;23.302;2022-11-15T13:33:34;41.35;;;18.63;;
70071;SDS011;57434;42.794;23.302;2022-11-15T13:36:12;45.58;;;17.92;;
70071;SDS011;57434;42.794;23.302;2022-11-15T13:39:00;49.13;;;21.00;;
70071;SDS011;57434;42.794;23.302;2022-11-15T13:45:01;44.20;;;19.88;;
70071;SDS011;57434;42.794;23.302;2022-11-15T13:47:43;46.92;;;21.15;;
70071;SDS011;57434;42.794;23.302;2022-11-15T13:50:18;38.65;;;19.70;;
70071;SDS011;57434;42.794;23.302;2022-11-15T13:53:13;46.83;;;20.08;;
70071;SDS011;57434;42.794;23.302;2022-11-15T13:56:18;55.30;;;24.47;;
70071;SDS011;57434;42.794;23.302;2022-11-15T13:59:00;57.28;;;24.95;;
70071;SDS011;57434;42.794;23.302;2022-11-15T14:01:58;46.17;;;19.67;;
70071;SDS011;57434;42.794;23.302;2022-11-15T14:04:57;48.85;;;20.23;;
70071;SDS011;57434;42.794;23.302;2022-11-15T14:08:03;45.08;;;19.88;;
70071;SDS011;57434;42.794;23.302;2022-11-15T14:11:07;49.27;;;19.17;;
70071;SDS011;57434;42.794;23.302;2022-11-15T14:16:56;54.63;;;22.45;;
70071;SDS011;57434;42.794;23.302;2022-11-15T14:22:14;51.42;;;21.95;;
70071;SDS011;57434;42.794;23.302;2022-11-15T14:25:03;46.17;;;21.17;;
70071;SDS011;57434;42.794;23.302;2022-11-15T14:30:57;44.45;;;19.58;;
70071;SDS011;57434;42.794;23.302;2022-11-15T14:33:58;82.30;;;31.63;;
70071;SDS011;57434;42.794;23.302;2022-11-15T14:36:26;68.63;;;29.10;;
70071;SDS011;57434;42.794;23.302;2022-11-15T14:39:07;92.40;;;37.33;;
70071;SDS011;57434;42.794;23.302;2022-11-15T14:42:05;69.30;;;28.88;;
70071;SDS011;57434;42.794;23.302;2022-11-15T14:47:46;54.95;;;23.45;;
70071;SDS011;57434;42.794;23.302;2022-11-15T14:50:28;53.85;;;22.65;;
70071;SDS011;57434;42.794;23.302;2022-11-15T14:56:12;59.70;;;25.00;;
70071;SDS011;57434;42.794;23.302;2022-11-15T14:58:47;58.28;;;24.65;;
70071;SDS011;57434;42.794;23.302;2022-11-15T15:01:25;54.63;;;22.02;;
70071;SDS011;57434;42.794;23.302;2022-11-15T15:03:58;46.13;;;21.58;;
70071;SDS011;57434;42.794;23.302;2022-11-15T15:06:27;54.10;;;23.03;;
70071;SDS011;57434;42.794;23.302;2022-11-15T15:08:57;61.15;;;23.48;;
70071;SDS011;57434;42.794;23.302;2022-11-15T15:11:28;55.85;;;23.33;;
70071;SDS011;57434;42.794;23.302;2022-11-15T15:14:07;59.60;;;24.75;;
70071;SDS011;57434;42.794;23.302;2022-11-15T15:16:39;68.07;;;28.65;;
70071;SDS011;57434;42.794;23.302;2022-11-15T15:19:12;68.37;;;33.23;;
70071;SDS011;57434;42.794;23.302;2022-11-15T15:22:16;61.95;;;28.33;;
70071;SDS011;57434;42.794;23.302;2022-11-15T15:25:30;53.20;;;24.13;;
70071;SDS011;57434;42.794;23.302;2022-11-15T15:28:13;64.55;;;28.38;;
70071;SDS011;57434;42.794;23.302;2022-11-15T15:30:59;52.30;;;22.73;;
70071;SDS011;57434;42.794;23.302;2022-11-15T15:33:33;54.57;;;23.03;;
70071;SDS011;57434;42.794;23.302;2022-11-15T15:36:08;51.28;;;23.75;;
70071;SDS011;57434;42.794;23.302;2022-11-15T15:38:46;64.55;;;27.48;;
70071;SDS011;57434;42.794;23.302;2022-11-15T15:41:25;52.05;;;21.10;;
70071;SDS011;57434;42.794;23.302;2022-11-15T15:44:14;62.92;;;25.00;;
70071;SDS011;57434;42.794;23.302;2022-11-15T15:46:57;54.27;;;23.50;;
70071;SDS011;57434;42.794;23.302;2022-11-15T15:49:41;48.85;;;21.30;;
70071;SDS011;57434;42.794;23.302;2022-11-15T15:52:21;54.28;;;23.58;;
70071;SDS011;57434;42.794;23.302;2022-11-15T15:55:19;53.63;;;22.27;;
70071;SDS011;57434;42.794;23.302;2022-11-15T15:58:01;55.15;;;22.00;;
70071;SDS011;57434;42.794;23.302;2022-11-15T16:00:41;53.33;;;22.03;;
70071;SDS011;57434;42.794;23.302;2022-11-15T16:03:14;56.50;;;22.25;;
70071;SDS011;57434;42.794;23.302;2022-11-15T16:05:49;49.13;;;21.73;;
70071;SDS011;57434;42.794;23.302;2022-11-15T16:08:22;45.95;;;20.90;;
70071;SDS011;57434;42.794;23.302;2022-11-15T16:11:25;52.45;;;20.95;;
70071;SDS011;57434;42.794;23.302;2022-11-15T16:14:13;49.50;;;20.63;;
70071;SDS011;57434;42.794;23.302;2022-11-15T16:17:37;51.30;;;22.63;;
70071;SDS011;57434;42.794;23.302;2022-11-15T16:20:43;52.08;;;22.10;;
70071;SDS011;57434;42.794;23.302;2022-11-15T16:23:22;53.67;;;20.67;;
70071;SDS011;57434;42.794;23.302;2022-11-15T16:26:21;59.08;;;23.52;;
70071;SDS011;57434;42.794;23.302;2022-11-15T16:29:12;45.20;;;20.57;;
70071;SDS011;57434;42.794;23.302;2022-11-15T16:34:43;57.28;;;22.83;;
70071;SDS011;57434;42.794;23.302;2022-11-15T16:37:32;53.63;;;23.27;;
70071;SDS011;57434;42.794;23.302;2022-11-15T16:40:27;56.30;;;26.10;;
70071;SDS011;57434;42.794;23.302;2022-11-15T16:43:05;66.00;;;31.97;;
70071;SDS011;57434;42.794;23.302;2022-11-15T16:46:01;61.60;;;23.52;;
70071;SDS011;57434;42.794;23.302;2022-11-15T16:48:48;50.22;;;23.30;;
70071;SDS011;57434;42.794;23.302;2022-11-15T16:51:49;54.30;;;21.58;;
70071;SDS011;57434;42.794;23.302;2022-11-15T16:57:28;48.13;;;23.10;;
70071;SDS011;57434;42.794;23.302;2022-11-15T16:59:55;55.22;;;22.08;;
70071;SDS011;57434;42.794;23.302;2022-11-15T17:05:43;43.72;;;20.95;;
70071;SDS011;57434;42.794;23.302;2022-11-15T17:08:44;59.25;;;25.10;;
70071;SDS011;57434;42.794;23.302;2022-11-15T17:11:33;55.67;;;23.40;;
70071;SDS011;57434;42.794;23.302;2022-11-15T17:14:26;60.33;;;22.83;;
70071;SDS011;57434;42.794;23.302;2022-11-15T17:16:56;45.97;;;20.35;;
70071;SDS011;57434;42.794;23.302;2022-11-15T17:19:42;51.28;;;20.10;;
70071;SDS011;57434;42.794;23.302;2022-11-15T17:25:42;48.07;;;19.53;;
70071;SDS011;57434;42.794;23.302;2022-11-15T17:34:31;40.88;;;16.88;;
70071;SDS011;57434;42.794;23.302;2022-11-15T17:37:24;50.47;;;21.38;;
70071;SDS011;57434;42.794;23.302;2022-11-15T17:40:02;41.13;;;18.53;;
70071;SDS011;57434;42.794;23.302;2022-11-15T17:42:53;39.67;;;16.88;;
70071;SDS011;57434;42.794;23.302;2022-11-15T17:45:44;36.60;;;15.25;;
70071;SDS011;57434;42.794;23.302;2022-11-15T17:48:14;39.70;;;14.00;;
70071;SDS011;57434;42.794;23.302;2022-11-15T17:51:08;33.10;;;15.10;;
70071;SDS011;57434;42.794;23.302;2022-11-15T17:53:39;45.60;;;19.27;;
70071;SDS011;57434;42.794;23.302;2022-11-15T17:56:28;50.17;;;20.13;;
70071;SDS011;57434;42.794;23.302;2022-11-15T17:59:02;51.67;;;21.27;;
70071;SDS011;57434;42.794;23.302;2022-11-15T18:01:36;47.28;;;19.45;;
70071;SDS011;57434;42.794;23.302;2022-11-15T18:04:13;44.38;;;19.42;;
70071;SDS011;57434;42.794;23.302;2022-11-15T18:07:26;48.27;;;19.77;;
70071;SDS011;57434;42.794;23.302;2022-11-15T18:10:06;39.63;;;17.48;;
70071;SDS011;57434;42.794;23.302;2022-11-15T18:12:43;43.25;;;16.55;;
70071;SDS011;57434;42.794;23.302;2022-11-15T18:15:20;43.10;;;16.20;;
70071;SDS011;57434;42.794;23.302;2022-11-15T18:17:50;43.22;;;17.42;;
70071;SDS011;57434;42.794;23.302;2022-11-15T18:20:35;40.63;;;17.43;;
70071;SDS011;57434;42.794;23.302;2022-11-15T18:23:07;60.95;;;24.10;;
70071;SDS011;57434;42.794;23.302;2022-11-15T18:25:34;56.35;;;25.52;;
70071;SDS011;57434;42.794;23.302;2022-11-15T18:28:05;46.90;;;20.67;;
70071;SDS011;57434;42.794;23.302;2022-11-15T18:30:45;65.68;;;25.23;;
70071;SDS011;57434;42.794;23.302;2022-11-15T18:33:19;71.40;;;29.67;;